AJA weather

Ajaccio-Napoléon Bonaparte Airport
Ajaccio/Napoléon Bonaparte, Corsica, France

Public forecast

Using degrees Celsius for public forecast. Weather courtesy of forecast.io.

METAR (pilot weather report)

Retrieved 2019/06/16 22:30 UTC (1 second ago):

LFKJ 162230Z AUTO 05005KT CAVOK 17/14 Q1016 NOSIG

TAF (pilot weather forecast)

Retrieved 2019/06/16 21:00 UTC (2 hours ago):

TAF LFKJ 162000Z 1621/1721 05005KT CAVOK PROB40 TEMPO 1701/1706 BKN008 BECMG 1707/1709 23010KT BECMG 1718/1721 05004KT